sensor_id;sensor_type;location;lat;lon;timestamp;pressure;altitude;pressure_sealevel;temperature;humidity
68141;BME280;54941;52.220;104.306;2024-01-10T00:02:13;95670.56;;;-9.07;81.36
68141;BME280;54941;52.220;104.306;2024-01-10T00:04:39;95662.25;;;-8.81;81.54
68141;BME280;54941;52.220;104.306;2024-01-10T00:07:05;95665.50;;;-9.06;82.30
68141;BME280;54941;52.220;104.306;2024-01-10T00:09:33;95670.22;;;-9.15;82.93
68141;BME280;54941;52.220;104.306;2024-01-10T00:11:59;95684.94;;;-8.90;83.20
68141;BME280;54941;52.220;104.306;2024-01-10T00:14:25;95683.00;;;-8.96;83.11
68141;BME280;54941;52.220;104.306;2024-01-10T00:16:51;95699.66;;;-8.85;83.57
68141;BME280;54941;52.220;104.306;2024-01-10T00:19:17;95706.69;;;-8.58;83.01
68141;BME280;54941;52.220;104.306;2024-01-10T00:21:44;95715.34;;;-8.77;83.51
68141;BME280;54941;52.220;104.306;2024-01-10T00:24:10;95722.56;;;-8.46;82.98
68141;BME280;54941;52.220;104.306;2024-01-10T00:26:37;95727.06;;;-8.61;83.47
68141;BME280;54941;52.220;104.306;2024-01-10T00:29:04;95734.59;;;-8.45;83.59
68141;BME280;54941;52.220;104.306;2024-01-10T00:31:30;95739.44;;;-8.51;83.64
68141;BME280;54941;52.220;104.306;2024-01-10T00:33:56;95739.13;;;-8.38;83.26
68141;BME280;54941;52.220;104.306;2024-01-10T00:36:22;95748.44;;;-8.61;83.40
68141;BME280;54941;52.220;104.306;2024-01-10T00:38:48;95753.75;;;-8.56;83.02
68141;BME280;54941;52.220;104.306;2024-01-10T00:41:14;95756.44;;;-8.53;83.59
68141;BME280;54941;52.220;104.306;2024-01-10T00:43:42;95750.75;;;-8.67;84.03
68141;BME280;54941;52.220;104.306;2024-01-10T00:46:08;95746.81;;;-8.79;83.74
68141;BME280;54941;52.220;104.306;2024-01-10T00:48:35;95743.28;;;-9.02;84.11
68141;BME280;54941;52.220;104.306;2024-01-10T00:51:01;95753.06;;;-9.13;84.73
68141;BME280;54941;52.220;104.306;2024-01-10T00:53:27;95751.44;;;-9.30;85.07
68141;BME280;54941;52.220;104.306;2024-01-10T00:55:53;95756.34;;;-9.54;85.36
68141;BME280;54941;52.220;104.306;2024-01-10T00:58:20;95755.81;;;-9.66;85.32
68141;BME280;54941;52.220;104.306;2024-01-10T01:00:48;95761.75;;;-9.85;85.80
68141;BME280;54941;52.220;104.306;2024-01-10T01:03:14;95759.94;;;-9.88;86.59
68141;BME280;54941;52.220;104.306;2024-01-10T01:05:40;95765.13;;;-9.86;86.71
68141;BME280;54941;52.220;104.306;2024-01-10T01:08:06;95775.72;;;-9.96;85.87
68141;BME280;54941;52.220;104.306;2024-01-10T01:10:34;95770.66;;;-10.14;85.40
68141;BME280;54941;52.220;104.306;2024-01-10T01:13:00;95795.00;;;-10.21;85.59
68141;BME280;54941;52.220;104.306;2024-01-10T01:15:26;95798.41;;;-10.22;85.58
68141;BME280;54941;52.220;104.306;2024-01-10T01:17:53;95799.44;;;-10.70;85.45
68141;BME280;54941;52.220;104.306;2024-01-10T01:20:20;95808.97;;;-10.84;84.84
68141;BME280;54941;52.220;104.306;2024-01-10T01:22:46;95829.50;;;-10.99;85.26
68141;BME280;54941;52.220;104.306;2024-01-10T01:25:12;95854.81;;;-11.02;85.10
68141;BME280;54941;52.220;104.306;2024-01-10T01:27:38;95867.59;;;-11.18;84.90
68141;BME280;54941;52.220;104.306;2024-01-10T01:30:06;95870.03;;;-11.03;84.64
68141;BME280;54941;52.220;104.306;2024-01-10T01:32:32;95876.19;;;-10.83;85.39
68141;BME280;54941;52.220;104.306;2024-01-10T01:35:00;95876.06;;;-10.69;84.76
68141;BME280;54941;52.220;104.306;2024-01-10T01:37:26;95881.66;;;-10.60;83.56
68141;BME280;54941;52.220;104.306;2024-01-10T01:39:52;95887.28;;;-10.49;82.45
68141;BME280;54941;52.220;104.306;2024-01-10T01:42:18;95886.16;;;-11.04;80.54
68141;BME280;54941;52.220;104.306;2024-01-10T01:44:44;95898.19;;;-11.18;81.10
68141;BME280;54941;52.220;104.306;2024-01-10T01:47:11;95887.03;;;-11.04;83.04
68141;BME280;54941;52.220;104.306;2024-01-10T01:49:37;95899.84;;;-11.02;83.28
68141;BME280;54941;52.220;104.306;2024-01-10T01:52:05;95899.38;;;-10.79;84.75
68141;BME280;54941;52.220;104.306;2024-01-10T01:54:33;95891.06;;;-10.58;85.55
68141;BME280;54941;52.220;104.306;2024-01-10T01:56:59;95904.94;;;-10.70;86.15
68141;BME280;54941;52.220;104.306;2024-01-10T01:59:25;95908.78;;;-10.78;86.82
68141;BME280;54941;52.220;104.306;2024-01-10T02:01:55;95907.50;;;-10.70;87.01
68141;BME280;54941;52.220;104.306;2024-01-10T02:04:21;95901.41;;;-10.39;88.08
68141;BME280;54941;52.220;104.306;2024-01-10T02:06:48;95905.13;;;-10.15;88.94
68141;BME280;54941;52.220;104.306;2024-01-10T02:09:15;95906.69;;;-10.01;88.97
68141;BME280;54941;52.220;104.306;2024-01-10T02:11:42;95898.50;;;-9.76;88.33
68141;BME280;54941;52.220;104.306;2024-01-10T02:14:09;95912.16;;;-9.75;85.93
68141;BME280;54941;52.220;104.306;2024-01-10T02:16:36;95925.63;;;-10.31;82.14
68141;BME280;54941;52.220;104.306;2024-01-10T02:19:17;95937.47;;;-10.49;80.61
68141;BME280;54941;52.220;104.306;2024-01-10T02:21:44;95935.78;;;-10.49;82.08
68141;BME280;54941;52.220;104.306;2024-01-10T02:24:10;95951.16;;;-10.31;82.10
68141;BME280;54941;52.220;104.306;2024-01-10T02:26:37;95950.25;;;-9.97;83.60
68141;BME280;54941;52.220;104.306;2024-01-10T02:29:04;95949.66;;;-9.58;84.87
68141;BME280;54941;52.220;104.306;2024-01-10T02:31:30;95962.25;;;-9.79;81.07
68141;BME280;54941;52.220;104.306;2024-01-10T02:33:57;95966.59;;;-9.60;79.98
68141;BME280;54941;52.220;104.306;2024-01-10T02:36:23;95975.13;;;-9.59;77.97
68141;BME280;54941;52.220;104.306;2024-01-10T02:38:49;95984.09;;;-9.50;79.21
68141;BME280;54941;52.220;104.306;2024-01-10T02:41:15;95985.69;;;-8.42;79.64
68141;BME280;54941;52.220;104.306;2024-01-10T02:43:43;95985.69;;;-7.41;77.25
68141;BME280;54941;52.220;104.306;2024-01-10T02:46:09;95983.06;;;-6.99;73.31
68141;BME280;54941;52.220;104.306;2024-01-10T02:48:35;95988.06;;;-6.35;70.95
68141;BME280;54941;52.220;104.306;2024-01-10T02:51:01;95974.16;;;-5.14;65.61
68141;BME280;54941;52.220;104.306;2024-01-10T02:53:27;95995.66;;;-5.39;66.18
68141;BME280;54941;52.220;104.306;2024-01-10T02:55:54;96001.81;;;-4.53;63.89
68141;BME280;54941;52.220;104.306;2024-01-10T02:58:20;95993.53;;;-3.17;59.24
68141;BME280;54941;52.220;104.306;2024-01-10T03:00:48;96012.63;;;-4.06;58.18
68141;BME280;54941;52.220;104.306;2024-01-10T03:03:14;96022.31;;;-3.99;56.43
68141;BME280;54941;52.220;104.306;2024-01-10T03:05:40;96004.00;;;-2.76;53.91
68141;BME280;54941;52.220;104.306;2024-01-10T03:08:06;96016.09;;;-2.75;51.51
68141;BME280;54941;52.220;104.306;2024-01-10T03:10:33;96037.84;;;-3.98;53.57
68141;BME280;54941;52.220;104.306;2024-01-10T03:12:59;96028.69;;;-2.89;52.41
68141;BME280;54941;52.220;104.306;2024-01-10T03:15:25;96034.28;;;-2.33;49.73
68141;BME280;54941;52.220;104.306;2024-01-10T03:17:53;96034.38;;;-3.02;49.68
68141;BME280;54941;52.220;104.306;2024-01-10T03:20:19;96038.66;;;-2.68;50.04
68141;BME280;54941;52.220;104.306;2024-01-10T03:22:45;96043.66;;;-1.99;49.77
68141;BME280;54941;52.220;104.306;2024-01-10T03:25:11;96052.56;;;-2.99;49.39
68141;BME280;54941;52.220;104.306;2024-01-10T03:27:37;96050.19;;;-1.32;46.17
68141;BME280;54941;52.220;104.306;2024-01-10T03:30:05;96062.84;;;-1.49;46.51
68141;BME280;54941;52.220;104.306;2024-01-10T03:32:31;96068.38;;;-1.29;44.67
68141;BME280;54941;52.220;104.306;2024-01-10T03:34:59;96077.56;;;-2.27;46.75
68141;BME280;54941;52.220;104.306;2024-01-10T03:37:25;96073.09;;;-0.60;43.86
68141;BME280;54941;52.220;104.306;2024-01-10T03:39:51;96081.13;;;-0.94;44.65
68141;BME280;54941;52.220;104.306;2024-01-10T03:42:18;96091.13;;;-1.59;44.82
68141;BME280;54941;52.220;104.306;2024-01-10T03:44:44;96097.31;;;-1.51;44.52
68141;BME280;54941;52.220;104.306;2024-01-10T03:47:10;96098.03;;;-1.60;44.77
68141;BME280;54941;52.220;104.306;2024-01-10T03:49:36;96098.56;;;-2.14;45.59
68141;BME280;54941;52.220;104.306;2024-01-10T03:52:04;96116.22;;;-1.96;46.92
68141;BME280;54941;52.220;104.306;2024-01-10T03:54:30;96125.81;;;-2.64;46.36
68141;BME280;54941;52.220;104.306;2024-01-10T03:56:56;96127.59;;;-2.27;46.49
68141;BME280;54941;52.220;104.306;2024-01-10T03:59:22;96134.84;;;-2.47;45.69
68141;BME280;54941;52.220;104.306;2024-01-10T04:01:49;96134.69;;;-2.18;45.84
68141;BME280;54941;52.220;104.306;2024-01-10T04:04:15;96131.28;;;-1.78;44.48
68141;BME280;54941;52.220;104.306;2024-01-10T04:06:41;96126.88;;;-1.41;43.65
68141;BME280;54941;52.220;104.306;2024-01-10T04:09:09;96133.78;;;-0.51;42.58
68141;BME280;54941;52.220;104.306;2024-01-10T04:11:35;96129.44;;;-1.43;42.50
68141;BME280;54941;52.220;104.306;2024-01-10T04:14:01;96139.78;;;-1.44;43.43
68141;BME280;54941;52.220;104.306;2024-01-10T04:16:27;96147.84;;;-3.11;46.80
68141;BME280;54941;52.220;104.306;2024-01-10T04:18:54;96161.13;;;-3.29;45.74
68141;BME280;54941;52.220;104.306;2024-01-10T04:21:20;96157.31;;;-2.79;45.34
68141;BME280;54941;52.220;104.306;2024-01-10T04:23:46;96156.41;;;-2.46;45.08
68141;BME280;54941;52.220;104.306;2024-01-10T04:26:14;96164.66;;;-2.62;44.00
68141;BME280;54941;52.220;104.306;2024-01-10T04:28:40;96164.88;;;-2.53;44.93
68141;BME280;54941;52.220;104.306;2024-01-10T04:31:06;96183.59;;;-3.57;45.82
68141;BME280;54941;52.220;104.306;2024-01-10T04:33:32;96189.03;;;-3.16;45.93
68141;BME280;54941;52.220;104.306;2024-01-10T04:35:58;96189.06;;;-3.74;48.04
68141;BME280;54941;52.220;104.306;2024-01-10T04:38:24;96200.16;;;-3.77;46.80
68141;BME280;54941;52.220;104.306;2024-01-10T04:40:51;96200.13;;;-3.78;47.54
68141;BME280;54941;52.220;104.306;2024-01-10T04:43:18;96195.50;;;-3.89;48.38
68141;BME280;54941;52.220;104.306;2024-01-10T04:45:45;96204.66;;;-3.98;48.35
68141;BME280;54941;52.220;104.306;2024-01-10T04:48:11;96202.06;;;-4.27;49.34
68141;BME280;54941;52.220;104.306;2024-01-10T04:50:37;96205.69;;;-3.93;49.12
68141;BME280;54941;52.220;104.306;2024-01-10T04:53:04;96212.03;;;-4.63;50.06
68141;BME280;54941;52.220;104.306;2024-01-10T04:55:30;96220.56;;;-4.64;49.98
68141;BME280;54941;52.220;104.306;2024-01-10T04:57:56;96213.28;;;-3.98;48.33
68141;BME280;54941;52.220;104.306;2024-01-10T05:00:24;96213.91;;;-3.78;47.67
68141;BME280;54941;52.220;104.306;2024-01-10T05:02:50;96212.25;;;-3.76;46.36
68141;BME280;54941;52.220;104.306;2024-01-10T05:05:16;96218.06;;;-3.55;46.60
68141;BME280;54941;52.220;104.306;2024-01-10T05:07:42;96222.19;;;-3.31;45.68
68141;BME280;54941;52.220;104.306;2024-01-10T05:10:09;96227.72;;;-3.19;44.52
68141;BME280;54941;52.220;104.306;2024-01-10T05:12:35;96235.59;;;-3.14;44.81
68141;BME280;54941;52.220;104.306;2024-01-10T05:15:01;96241.63;;;-3.14;44.62
68141;BME280;54941;52.220;104.306;2024-01-10T05:17:31;96244.88;;;-3.21;43.85
68141;BME280;54941;52.220;104.306;2024-01-10T05:19:57;96239.41;;;-2.70;43.65
68141;BME280;54941;52.220;104.306;2024-01-10T05:22:23;96238.38;;;-2.77;43.13
68141;BME280;54941;52.220;104.306;2024-01-10T05:24:49;96244.78;;;-3.81;45.18
68141;BME280;54941;52.220;104.306;2024-01-10T05:27:16;96243.50;;;-3.67;44.14
68141;BME280;54941;52.220;104.306;2024-01-10T05:29:42;96248.56;;;-4.24;44.79
68141;BME280;54941;52.220;104.306;2024-01-10T05:32:08;96265.75;;;-4.50;45.22
68141;BME280;54941;52.220;104.306;2024-01-10T05:34:36;96263.91;;;-5.02;46.65
68141;BME280;54941;52.220;104.306;2024-01-10T05:37:02;96269.09;;;-5.91;49.40
68141;BME280;54941;52.220;104.306;2024-01-10T05:39:28;96268.88;;;-6.18;48.68
68141;BME280;54941;52.220;104.306;2024-01-10T05:41:54;96264.56;;;-5.76;49.41
68141;BME280;54941;52.220;104.306;2024-01-10T05:44:21;96273.56;;;-5.65;47.88
68141;BME280;54941;52.220;104.306;2024-01-10T05:46:47;96273.25;;;-5.50;47.25
68141;BME280;54941;52.220;104.306;2024-01-10T05:49:13;96276.97;;;-5.66;46.91
68141;BME280;54941;52.220;104.306;2024-01-10T05:51:41;96280.00;;;-5.53;46.09
68141;BME280;54941;52.220;104.306;2024-01-10T05:54:07;96275.78;;;-5.51;46.09
68141;BME280;54941;52.220;104.306;2024-01-10T05:56:33;96277.44;;;-5.53;46.29
68141;BME280;54941;52.220;104.306;2024-01-10T05:58:59;96279.22;;;-5.73;46.86
68141;BME280;54941;52.220;104.306;2024-01-10T06:01:25;96277.69;;;-5.46;46.71
68141;BME280;54941;52.220;104.306;2024-01-10T06:03:51;96278.09;;;-4.89;45.65
68141;BME280;54941;52.220;104.306;2024-01-10T06:06:18;96278.34;;;-5.29;45.40
68141;BME280;54941;52.220;104.306;2024-01-10T06:08:45;96286.47;;;-5.85;47.05
68141;BME280;54941;52.220;104.306;2024-01-10T06:11:11;96297.28;;;-6.15;47.04
68141;BME280;54941;52.220;104.306;2024-01-10T06:13:38;96298.56;;;-5.83;46.54
68141;BME280;54941;52.220;104.306;2024-01-10T06:16:04;96292.13;;;-5.72;46.84
68141;BME280;54941;52.220;104.306;2024-01-10T06:18:30;96298.06;;;-5.30;46.58
68141;BME280;54941;52.220;104.306;2024-01-10T06:20:56;96300.66;;;-5.52;46.28
68141;BME280;54941;52.220;104.306;2024-01-10T06:23:25;96313.69;;;-6.13;47.25
68141;BME280;54941;52.220;104.306;2024-01-10T06:25:53;96307.25;;;-5.79;46.90
68141;BME280;54941;52.220;104.306;2024-01-10T06:28:19;96310.16;;;-6.15;48.60
68141;BME280;54941;52.220;104.306;2024-01-10T06:30:46;96316.63;;;-6.25;47.78
68141;BME280;54941;52.220;104.306;2024-01-10T06:33:17;96308.56;;;-5.68;47.61
68141;BME280;54941;52.220;104.306;2024-01-10T06:35:43;96303.91;;;-5.56;46.30
68141;BME280;54941;52.220;104.306;2024-01-10T06:38:10;96314.97;;;-5.79;46.41
68141;BME280;54941;52.220;104.306;2024-01-10T06:40:36;96324.00;;;-5.91;46.30
68141;BME280;54941;52.220;104.306;2024-01-10T06:43:05;96323.69;;;-6.19;46.45
68141;BME280;54941;52.220;104.306;2024-01-10T06:45:32;96332.72;;;-6.69;47.53
68141;BME280;54941;52.220;104.306;2024-01-10T06:48:01;96330.00;;;-6.72;47.87
68141;BME280;54941;52.220;104.306;2024-01-10T06:50:27;96335.22;;;-6.90;48.75
68141;BME280;54941;52.220;104.306;2024-01-10T06:52:58;96346.47;;;-7.25;49.48
68141;BME280;54941;52.220;104.306;2024-01-10T06:55:28;96336.84;;;-6.92;49.77
68141;BME280;54941;52.220;104.306;2024-01-10T06:57:59;96334.28;;;-6.92;49.66
68141;BME280;54941;52.220;104.306;2024-01-10T07:00:35;96330.34;;;-6.84;48.93
68141;BME280;54941;52.220;104.306;2024-01-10T07:03:02;96340.78;;;-6.81;49.51
68141;BME280;54941;52.220;104.306;2024-01-10T07:05:31;96350.53;;;-7.11;48.94
68141;BME280;54941;52.220;104.306;2024-01-10T07:07:57;96346.44;;;-6.88;49.35
68141;BME280;54941;52.220;104.306;2024-01-10T07:10:25;96347.44;;;-6.84;49.71
68141;BME280;54941;52.220;104.306;2024-01-10T07:12:54;96349.59;;;-7.13;49.77
68141;BME280;54941;52.220;104.306;2024-01-10T07:15:23;96358.66;;;-7.01;50.16
68141;BME280;54941;52.220;104.306;2024-01-10T07:17:50;96370.97;;;-7.31;50.39
68141;BME280;54941;52.220;104.306;2024-01-10T07:20:17;96366.72;;;-6.94;49.77
68141;BME280;54941;52.220;104.306;2024-01-10T07:22:43;96367.19;;;-7.02;50.26
68141;BME280;54941;52.220;104.306;2024-01-10T07:25:09;96377.25;;;-6.88;50.41
68141;BME280;54941;52.220;104.306;2024-01-10T07:27:38;96386.72;;;-6.87;49.93
68141;BME280;54941;52.220;104.306;2024-01-10T07:30:06;96396.25;;;-7.21;49.88
68141;BME280;54941;52.220;104.306;2024-01-10T07:32:38;96397.38;;;-7.34;49.48
68141;BME280;54941;52.220;104.306;2024-01-10T07:35:07;96397.59;;;-7.47;49.55
68141;BME280;54941;52.220;104.306;2024-01-10T07:37:37;96404.34;;;-7.67;50.64
68141;BME280;54941;52.220;104.306;2024-01-10T07:40:05;96408.09;;;-7.60;49.87
68141;BME280;54941;52.220;104.306;2024-01-10T07:42:31;96405.56;;;-7.77;49.19
68141;BME280;54941;52.220;104.306;2024-01-10T07:45:04;96417.31;;;-7.82;50.62
68141;BME280;54941;52.220;104.306;2024-01-10T07:47:34;96418.38;;;-7.95;51.15
68141;BME280;54941;52.220;104.306;2024-01-10T07:50:06;96409.41;;;-7.86;51.54
68141;BME280;54941;52.220;104.306;2024-01-10T07:52:32;96416.84;;;-7.91;51.07
68141;BME280;54941;52.220;104.306;2024-01-10T07:55:02;96422.56;;;-7.79;51.23
68141;BME280;54941;52.220;104.306;2024-01-10T07:57:29;96430.34;;;-7.77;50.81
68141;BME280;54941;52.220;104.306;2024-01-10T07:59:56;96436.88;;;-7.84;50.92
68141;BME280;54941;52.220;104.306;2024-01-10T08:02:25;96440.03;;;-7.72;51.01
68141;BME280;54941;52.220;104.306;2024-01-10T08:04:54;96429.88;;;-8.04;51.54
68141;BME280;54941;52.220;104.306;2024-01-10T08:07:27;96437.34;;;-7.91;51.64
68141;BME280;54941;52.220;104.306;2024-01-10T08:09:55;96442.00;;;-8.00;51.55
68141;BME280;54941;52.220;104.306;2024-01-10T08:12:21;96446.53;;;-8.12;51.45
68141;BME280;54941;52.220;104.306;2024-01-10T08:14:47;96449.47;;;-8.39;51.83
68141;BME280;54941;52.220;104.306;2024-01-10T08:17:14;96462.16;;;-8.42;52.62
68141;BME280;54941;52.220;104.306;2024-01-10T08:19:42;96465.19;;;-8.49;52.96
68141;BME280;54941;52.220;104.306;2024-01-10T08:22:09;96460.28;;;-8.61;53.16
68141;BME280;54941;52.220;104.306;2024-01-10T08:24:47;96467.75;;;-8.65;52.55
68141;BME280;54941;52.220;104.306;2024-01-10T08:27:13;96472.69;;;-8.68;52.03
68141;BME280;54941;52.220;104.306;2024-01-10T08:29:41;96478.28;;;-8.59;51.80
68141;BME280;54941;52.220;104.306;2024-01-10T08:32:07;96498.69;;;-8.61;51.76
68141;BME280;54941;52.220;104.306;2024-01-10T08:34:34;96492.47;;;-8.66;52.29
68141;BME280;54941;52.220;104.306;2024-01-10T08:37:02;96493.88;;;-8.71;52.97
68141;BME280;54941;52.220;104.306;2024-01-10T08:39:31;96510.03;;;-8.88;53.80
68141;BME280;54941;52.220;104.306;2024-01-10T08:41:59;96515.16;;;-9.03;53.44
68141;BME280;54941;52.220;104.306;2024-01-10T08:44:25;96522.84;;;-9.03;52.29
68141;BME280;54941;52.220;104.306;2024-01-10T08:46:56;96527.72;;;-9.07;52.60
68141;BME280;54941;52.220;104.306;2024-01-10T08:49:22;96527.41;;;-9.28;53.46
68141;BME280;54941;52.220;104.306;2024-01-10T08:51:48;96529.53;;;-9.21;53.97
68141;BME280;54941;52.220;104.306;2024-01-10T08:54:15;96534.13;;;-9.30;54.06
68141;BME280;54941;52.220;104.306;2024-01-10T08:56:43;96527.53;;;-9.42;54.87
68141;BME280;54941;52.220;104.306;2024-01-10T08:59:11;96532.91;;;-9.52;54.52
68141;BME280;54941;52.220;104.306;2024-01-10T09:01:37;96540.75;;;-9.34;54.09
68141;BME280;54941;52.220;104.306;2024-01-10T09:04:06;96547.13;;;-9.57;54.20
68141;BME280;54941;52.220;104.306;2024-01-10T09:06:32;96548.06;;;-9.55;54.58
68141;BME280;54941;52.220;104.306;2024-01-10T09:08:58;96551.50;;;-9.54;54.90
68141;BME280;54941;52.220;104.306;2024-01-10T09:11:25;96552.81;;;-9.61;54.95
68141;BME280;54941;52.220;104.306;2024-01-10T09:13:51;96560.94;;;-9.68;55.62
68141;BME280;54941;52.220;104.306;2024-01-10T09:16:19;96559.97;;;-9.70;54.76
68141;BME280;54941;52.220;104.306;2024-01-10T09:18:50;96564.88;;;-9.73;54.88
68141;BME280;54941;52.220;104.306;2024-01-10T09:21:20;96568.44;;;-9.71;55.01
68141;BME280;54941;52.220;104.306;2024-01-10T09:23:53;96568.25;;;-9.74;55.60
68141;BME280;54941;52.220;104.306;2024-01-10T09:26:20;96583.81;;;-9.84;56.32
68141;BME280;54941;52.220;104.306;2024-01-10T09:28:46;96585.63;;;-9.83;56.50
68141;BME280;54941;52.220;104.306;2024-01-10T09:31:12;96575.91;;;-9.74;55.62
68141;BME280;54941;52.220;104.306;2024-01-10T09:33:45;96582.84;;;-9.86;56.65
68141;BME280;54941;52.220;104.306;2024-01-10T09:36:11;96589.94;;;-9.82;57.09
68141;BME280;54941;52.220;104.306;2024-01-10T09:38:37;96589.16;;;-9.81;56.44
68141;BME280;54941;52.220;104.306;2024-01-10T09:41:04;96592.75;;;-9.63;56.55
68141;BME280;54941;52.220;104.306;2024-01-10T09:43:35;96590.28;;;-9.76;56.83
68141;BME280;54941;52.220;104.306;2024-01-10T09:46:01;96597.63;;;-9.95;56.50
68141;BME280;54941;52.220;104.306;2024-01-10T09:48:31;96606.41;;;-9.77;56.45
68141;BME280;54941;52.220;104.306;2024-01-10T09:51:05;96611.28;;;-9.82;56.17
68141;BME280;54941;52.220;104.306;2024-01-10T09:53:35;96613.47;;;-9.73;56.04
68141;BME280;54941;52.220;104.306;2024-01-10T09:56:03;96614.47;;;-9.71;55.94
68141;BME280;54941;52.220;104.306;2024-01-10T09:58:31;96620.47;;;-9.71;56.11
68141;BME280;54941;52.220;104.306;2024-01-10T10:00:57;96622.97;;;-9.85;56.61
68141;BME280;54941;52.220;104.306;2024-01-10T10:03:24;96621.50;;;-9.82;56.65
68141;BME280;54941;52.220;104.306;2024-01-10T10:05:50;96617.59;;;-9.90;56.77
68141;BME280;54941;52.220;104.306;2024-01-10T10:08:20;96625.91;;;-9.79;57.24
68141;BME280;54941;52.220;104.306;2024-01-10T10:10:48;96632.78;;;-9.63;56.31
68141;BME280;54941;52.220;104.306;2024-01-10T10:13:24;96631.97;;;-9.77;56.60
68141;BME280;54941;52.220;104.306;2024-01-10T10:15:58;96635.94;;;-9.82;56.51
68141;BME280;54941;52.220;104.306;2024-01-10T10:18:24;96636.81;;;-9.82;56.52
68141;BME280;54941;52.220;104.306;2024-01-10T10:21:06;96633.69;;;-10.06;57.27
68141;BME280;54941;52.220;104.306;2024-01-10T10:23:42;96630.75;;;-10.12;56.82
68141;BME280;54941;52.220;104.306;2024-01-10T10:26:13;96646.47;;;-10.19;57.32
68141;BME280;54941;52.220;104.306;2024-01-10T10:28:40;96633.38;;;-10.10;57.16
68141;BME280;54941;52.220;104.306;2024-01-10T10:31:09;96638.22;;;-10.29;57.90
68141;BME280;54941;52.220;104.306;2024-01-10T10:33:36;96636.94;;;-10.36;57.64
68141;BME280;54941;52.220;104.306;2024-01-10T10:36:04;96642.63;;;-10.27;57.48
68141;BME280;54941;52.220;104.306;2024-01-10T10:38:30;96647.03;;;-10.24;58.17
68141;BME280;54941;52.220;104.306;2024-01-10T10:41:02;96639.22;;;-10.41;57.46
68141;BME280;54941;52.220;104.306;2024-01-10T10:43:34;96651.28;;;-10.38;57.52
68141;BME280;54941;52.220;104.306;2024-01-10T10:46:01;96657.06;;;-10.27;57.59
68141;BME280;54941;52.220;104.306;2024-01-10T10:48:32;96656.81;;;-10.17;57.59
68141;BME280;54941;52.220;104.306;2024-01-10T10:51:06;96660.91;;;-10.47;57.91
68141;BME280;54941;52.220;104.306;2024-01-10T10:53:34;96657.19;;;-10.39;57.56
68141;BME280;54941;52.220;104.306;2024-01-10T10:56:05;96650.31;;;-10.53;57.82
68141;BME280;54941;52.220;104.306;2024-01-10T10:58:33;96661.63;;;-10.50;58.28
68141;BME280;54941;52.220;104.306;2024-01-10T11:01:00;96655.84;;;-10.74;58.64
68141;BME280;54941;52.220;104.306;2024-01-10T11:03:28;96660.16;;;-10.73;58.79
68141;BME280;54941;52.220;104.306;2024-01-10T11:05:55;96654.25;;;-10.72;59.04
68141;BME280;54941;52.220;104.306;2024-01-10T11:08:27;96664.09;;;-10.65;58.47
68141;BME280;54941;52.220;104.306;2024-01-10T11:10:55;96666.66;;;-10.65;58.47
68141;BME280;54941;52.220;104.306;2024-01-10T11:13:41;96666.22;;;-10.57;58.03
68141;BME280;54941;52.220;104.306;2024-01-10T11:19:29;96681.06;;;-10.78;59.00
68141;BME280;54941;52.220;104.306;2024-01-10T11:22:10;96679.75;;;-10.45;59.22
68141;BME280;54941;52.220;104.306;2024-01-10T11:24:42;96692.34;;;-10.48;59.22
68141;BME280;54941;52.220;104.306;2024-01-10T11:27:11;96696.16;;;-10.68;60.28
68141;BME280;54941;52.220;104.306;2024-01-10T11:29:40;96690.66;;;-10.48;59.49
68141;BME280;54941;52.220;104.306;2024-01-10T11:32:06;96716.31;;;-10.73;60.54
68141;BME280;54941;52.220;104.306;2024-01-10T11:34:34;96709.81;;;-10.68;60.17
68141;BME280;54941;52.220;104.306;2024-01-10T11:37:18;96709.03;;;-10.67;60.65
68141;BME280;54941;52.220;104.306;2024-01-10T11:39:50;96709.94;;;-10.53;61.09
68141;BME280;54941;52.220;104.306;2024-01-10T11:42:22;96708.06;;;-10.69;61.23
68141;BME280;54941;52.220;104.306;2024-01-10T11:44:50;96709.81;;;-10.68;61.87
68141;BME280;54941;52.220;104.306;2024-01-10T11:47:17;96705.09;;;-10.35;61.35
68141;BME280;54941;52.220;104.306;2024-01-10T11:49:55;96719.66;;;-10.61;61.34
68141;BME280;54941;52.220;104.306;2024-01-10T11:52:21;96716.69;;;-10.40;60.79
68141;BME280;54941;52.220;104.306;2024-01-10T11:54:48;96723.28;;;-10.57;61.24
68141;BME280;54941;52.220;104.306;2024-01-10T11:57:18;96731.34;;;-10.51;61.57
68141;BME280;54941;52.220;104.306;2024-01-10T11:59:45;96732.78;;;-10.54;62.00
68141;BME280;54941;52.220;104.306;2024-01-10T12:02:13;96732.13;;;-10.52;61.28
68141;BME280;54941;52.220;104.306;2024-01-10T12:04:40;96725.16;;;-10.41;61.21
68141;BME280;54941;52.220;104.306;2024-01-10T12:07:06;96728.88;;;-10.49;61.46
68141;BME280;54941;52.220;104.306;2024-01-10T12:09:32;96740.06;;;-10.47;61.50
68141;BME280;54941;52.220;104.306;2024-01-10T12:12:00;96733.78;;;-10.39;61.56
68141;BME280;54941;52.220;104.306;2024-01-10T12:14:27;96731.56;;;-10.20;61.31
68141;BME280;54941;52.220;104.306;2024-01-10T12:16:54;96746.84;;;-10.35;61.13
68141;BME280;54941;52.220;104.306;2024-01-10T12:19:21;96749.31;;;-10.49;61.82
68141;BME280;54941;52.220;104.306;2024-01-10T12:21:48;96742.53;;;-10.49;61.92
68141;BME280;54941;52.220;104.306;2024-01-10T12:24:15;96744.00;;;-10.52;61.87
68141;BME280;54941;52.220;104.306;2024-01-10T12:26:44;96741.09;;;-10.17;60.42
68141;BME280;54941;52.220;104.306;2024-01-10T12:29:11;96738.97;;;-10.24;59.94
68141;BME280;54941;52.220;104.306;2024-01-10T12:31:38;96735.66;;;-10.50;60.06
68141;BME280;54941;52.220;104.306;2024-01-10T12:34:04;96745.97;;;-10.48;60.51
68141;BME280;54941;52.220;104.306;2024-01-10T12:36:36;96753.09;;;-10.82;61.39
68141;BME280;54941;52.220;104.306;2024-01-10T12:39:03;96750.28;;;-10.47;60.32
68141;BME280;54941;52.220;104.306;2024-01-10T12:41:29;96750.47;;;-10.57;59.31
68141;BME280;54941;52.220;104.306;2024-01-10T12:43:56;96756.16;;;-10.75;58.88